sensor_id;sensor_type;location;lat;lon;timestamp;temperature;humidity
33931;DHT22;20215;53.130;6.408;2022-10-16T00:00:41;17.10;91.80
33931;DHT22;20215;53.130;6.408;2022-10-16T00:03:08;17.10;92.00
33931;DHT22;20215;53.130;6.408;2022-10-16T00:05:40;17.20;91.80
33931;DHT22;20215;53.130;6.408;2022-10-16T00:08:07;17.10;91.80
33931;DHT22;20215;53.130;6.408;2022-10-16T00:10:33;17.10;91.70
33931;DHT22;20215;53.130;6.408;2022-10-16T00:12:58;17.20;91.80
33931;DHT22;20215;53.130;6.408;2022-10-16T00:15:24;17.10;91.70
33931;DHT22;20215;53.130;6.408;2022-10-16T00:17:50;17.10;91.90
33931;DHT22;20215;53.130;6.408;2022-10-16T00:20:15;17.10;91.90
33931;DHT22;20215;53.130;6.408;2022-10-16T00:22:41;17.10;91.70
33931;DHT22;20215;53.130;6.408;2022-10-16T00:25:07;17.10;91.70
33931;DHT22;20215;53.130;6.408;2022-10-16T00:27:33;17.10;91.70
33931;DHT22;20215;53.130;6.408;2022-10-16T00:29:59;17.10;91.70
33931;DHT22;20215;53.130;6.408;2022-10-16T00:32:24;17.10;91.80
33931;DHT22;20215;53.130;6.408;2022-10-16T00:34:50;17.10;91.70
33931;DHT22;20215;53.130;6.408;2022-10-16T00:37:15;17.10;91.70
33931;DHT22;20215;53.130;6.408;2022-10-16T00:39:41;17.10;91.70
33931;DHT22;20215;53.130;6.408;2022-10-16T00:42:09;17.10;91.60
33931;DHT22;20215;53.130;6.408;2022-10-16T00:45:01;17.10;91.60
33931;DHT22;20215;53.130;6.408;2022-10-16T00:49:58;17.10;91.60
33931;DHT22;20215;53.130;6.408;2022-10-16T00:52:24;17.10;91.60
33931;DHT22;20215;53.130;6.408;2022-10-16T00:54:50;17.10;91.60
33931;DHT22;20215;53.130;6.408;2022-10-16T00:57:17;17.10;91.60
33931;DHT22;20215;53.130;6.408;2022-10-16T00:59:43;17.10;91.60
33931;DHT22;20215;53.130;6.408;2022-10-16T01:02:15;17.10;91.60
33931;DHT22;20215;53.130;6.408;2022-10-16T01:04:50;17.10;91.60
33931;DHT22;20215;53.130;6.408;2022-10-16T01:18:44;17.10;91.60
33931;DHT22;20215;53.130;6.408;2022-10-16T01:21:19;17.10;91.70
33931;DHT22;20215;53.130;6.408;2022-10-16T01:31:39;17.10;91.50
33931;DHT22;20215;53.130;6.408;2022-10-16T01:34:10;17.10;91.50
33931;DHT22;20215;53.130;6.408;2022-10-16T01:36:48;17.10;91.50
33931;DHT22;20215;53.130;6.408;2022-10-16T01:39:19;17.00;91.40
33931;DHT22;20215;53.130;6.408;2022-10-16T01:41:50;17.10;91.40
33931;DHT22;20215;53.130;6.408;2022-10-16T01:44:20;17.10;91.40
33931;DHT22;20215;53.130;6.408;2022-10-16T01:46:50;17.10;91.40
33931;DHT22;20215;53.130;6.408;2022-10-16T01:49:17;17.00;91.30
33931;DHT22;20215;53.130;6.408;2022-10-16T01:51:45;17.00;91.40
33931;DHT22;20215;53.130;6.408;2022-10-16T01:54:14;17.10;91.40
33931;DHT22;20215;53.130;6.408;2022-10-16T01:56:42;17.00;91.40
33931;DHT22;20215;53.130;6.408;2022-10-16T01:59:17;17.00;91.40
33931;DHT22;20215;53.130;6.408;2022-10-16T02:01:48;17.00;91.40
33931;DHT22;20215;53.130;6.408;2022-10-16T02:04:22;17.10;91.40
33931;DHT22;20215;53.130;6.408;2022-10-16T02:06:49;17.00;91.30
33931;DHT22;20215;53.130;6.408;2022-10-16T02:09:15;17.10;91.40
33931;DHT22;20215;53.130;6.408;2022-10-16T02:11:42;17.00;91.20
33931;DHT22;20215;53.130;6.408;2022-10-16T02:14:08;17.00;91.20
33931;DHT22;20215;53.130;6.408;2022-10-16T02:16:36;17.00;91.20
33931;DHT22;20215;53.130;6.408;2022-10-16T02:19:04;17.10;91.20
33931;DHT22;20215;53.130;6.408;2022-10-16T02:21:33;17.00;91.20
33931;DHT22;20215;53.130;6.408;2022-10-16T02:26:48;17.10;91.10
33931;DHT22;20215;53.130;6.408;2022-10-16T02:29:18;17.10;91.20
33931;DHT22;20215;53.130;6.408;2022-10-16T02:31:48;17.00;91.10
33931;DHT22;20215;53.130;6.408;2022-10-16T02:34:15;17.10;91.10
33931;DHT22;20215;53.130;6.408;2022-10-16T02:36:42;17.00;91.20
33931;DHT22;20215;53.130;6.408;2022-10-16T02:39:09;17.00;91.20
33931;DHT22;20215;53.130;6.408;2022-10-16T02:41:36;17.00;91.10
33931;DHT22;20215;53.130;6.408;2022-10-16T02:44:01;17.00;91.10
33931;DHT22;20215;53.130;6.408;2022-10-16T02:46:27;17.00;91.10
33931;DHT22;20215;53.130;6.408;2022-10-16T02:48:52;17.10;91.10
33931;DHT22;20215;53.130;6.408;2022-10-16T02:51:18;17.00;91.20
33931;DHT22;20215;53.130;6.408;2022-10-16T02:53:44;17.10;91.20
33931;DHT22;20215;53.130;6.408;2022-10-16T02:56:09;17.00;91.10
33931;DHT22;20215;53.130;6.408;2022-10-16T02:58:35;17.10;91.10
33931;DHT22;20215;53.130;6.408;2022-10-16T03:01:01;17.10;91.10
33931;DHT22;20215;53.130;6.408;2022-10-16T03:03:27;17.00;91.00
33931;DHT22;20215;53.130;6.408;2022-10-16T03:05:52;17.00;91.10
33931;DHT22;20215;53.130;6.408;2022-10-16T03:08:18;17.10;91.00
33931;DHT22;20215;53.130;6.408;2022-10-16T03:10:49;17.00;91.00
33931;DHT22;20215;53.130;6.408;2022-10-16T03:13:14;17.00;91.20
33931;DHT22;20215;53.130;6.408;2022-10-16T03:15:40;17.10;91.10
33931;DHT22;20215;53.130;6.408;2022-10-16T03:18:05;17.00;90.90
33931;DHT22;20215;53.130;6.408;2022-10-16T03:20:31;17.00;91.20
33931;DHT22;20215;53.130;6.408;2022-10-16T03:22:57;17.00;90.90
33931;DHT22;20215;53.130;6.408;2022-10-16T03:25:22;17.00;91.00
33931;DHT22;20215;53.130;6.408;2022-10-16T03:27:48;17.00;90.90
33931;DHT22;20215;53.130;6.408;2022-10-16T03:30:13;17.00;90.90
33931;DHT22;20215;53.130;6.408;2022-10-16T03:32:39;17.00;90.90
33931;DHT22;20215;53.130;6.408;2022-10-16T03:35:05;17.00;90.90
33931;DHT22;20215;53.130;6.408;2022-10-16T03:37:31;17.00;90.80
33931;DHT22;20215;53.130;6.408;2022-10-16T03:39:56;17.00;90.90
33931;DHT22;20215;53.130;6.408;2022-10-16T03:42:22;17.00;90.90
33931;DHT22;20215;53.130;6.408;2022-10-16T03:44:47;17.00;90.90
33931;DHT22;20215;53.130;6.408;2022-10-16T03:47:13;17.00;91.10
33931;DHT22;20215;53.130;6.408;2022-10-16T03:49:38;17.00;90.90
33931;DHT22;20215;53.130;6.408;2022-10-16T03:52:04;17.10;90.90
33931;DHT22;20215;53.130;6.408;2022-10-16T03:54:30;17.00;90.90
33931;DHT22;20215;53.130;6.408;2022-10-16T03:56:56;17.00;90.90
33931;DHT22;20215;53.130;6.408;2022-10-16T03:59:22;17.10;90.80
33931;DHT22;20215;53.130;6.408;2022-10-16T04:01:48;17.00;90.80
33931;DHT22;20215;53.130;6.408;2022-10-16T04:04:13;17.10;90.80
33931;DHT22;20215;53.130;6.408;2022-10-16T04:06:39;17.00;90.80
33931;DHT22;20215;53.130;6.408;2022-10-16T04:09:04;17.10;90.90
33931;DHT22;20215;53.130;6.408;2022-10-16T04:11:30;17.00;90.90
33931;DHT22;20215;53.130;6.408;2022-10-16T04:13:55;17.00;90.90
33931;DHT22;20215;53.130;6.408;2022-10-16T04:16:21;17.00;90.80
33931;DHT22;20215;53.130;6.408;2022-10-16T04:18:47;17.00;90.80
33931;DHT22;20215;53.130;6.408;2022-10-16T04:21:12;17.00;90.80
33931;DHT22;20215;53.130;6.408;2022-10-16T04:23:38;17.00;90.80
33931;DHT22;20215;53.130;6.408;2022-10-16T04:26:03;17.00;90.80
33931;DHT22;20215;53.130;6.408;2022-10-16T04:28:29;17.00;90.80
33931;DHT22;20215;53.130;6.408;2022-10-16T04:30:55;17.00;90.80
33931;DHT22;20215;53.130;6.408;2022-10-16T04:33:21;17.10;90.80
33931;DHT22;20215;53.130;6.408;2022-10-16T04:35:46;17.00;90.80
33931;DHT22;20215;53.130;6.408;2022-10-16T04:38:12;17.00;90.80
33931;DHT22;20215;53.130;6.408;2022-10-16T04:40:38;17.00;90.80
33931;DHT22;20215;53.130;6.408;2022-10-16T04:43:05;17.00;90.80
33931;DHT22;20215;53.130;6.408;2022-10-16T04:45:31;16.90;90.80
33931;DHT22;20215;53.130;6.408;2022-10-16T04:47:57;17.00;90.80
33931;DHT22;20215;53.130;6.408;2022-10-16T04:50:23;17.00;90.90
33931;DHT22;20215;53.130;6.408;2022-10-16T04:52:49;17.00;90.80
33931;DHT22;20215;53.130;6.408;2022-10-16T04:55:14;16.90;90.80
33931;DHT22;20215;53.130;6.408;2022-10-16T04:57:40;16.90;90.80
33931;DHT22;20215;53.130;6.408;2022-10-16T05:00:06;16.90;90.80
33931;DHT22;20215;53.130;6.408;2022-10-16T05:02:33;16.90;90.80
33931;DHT22;20215;53.130;6.408;2022-10-16T05:04:59;16.90;90.80
33931;DHT22;20215;53.130;6.408;2022-10-16T05:07:24;17.00;90.90
33931;DHT22;20215;53.130;6.408;2022-10-16T05:09:50;17.00;90.90
33931;DHT22;20215;53.130;6.408;2022-10-16T05:12:16;16.90;90.80
33931;DHT22;20215;53.130;6.408;2022-10-16T05:14:41;17.00;90.90
33931;DHT22;20215;53.130;6.408;2022-10-16T05:17:07;16.90;90.90
33931;DHT22;20215;53.130;6.408;2022-10-16T05:19:33;17.00;90.90
33931;DHT22;20215;53.130;6.408;2022-10-16T05:21:58;17.00;90.90
33931;DHT22;20215;53.130;6.408;2022-10-16T05:24:24;16.90;90.90
33931;DHT22;20215;53.130;6.408;2022-10-16T05:26:50;17.00;90.90
33931;DHT22;20215;53.130;6.408;2022-10-16T05:29:16;17.00;90.90
33931;DHT22;20215;53.130;6.408;2022-10-16T05:31:42;16.90;90.90
33931;DHT22;20215;53.130;6.408;2022-10-16T05:34:09;16.90;90.80
33931;DHT22;20215;53.130;6.408;2022-10-16T05:36:35;16.90;90.90
33931;DHT22;20215;53.130;6.408;2022-10-16T05:39:00;17.00;90.90
33931;DHT22;20215;53.130;6.408;2022-10-16T05:41:26;16.90;91.00
33931;DHT22;20215;53.130;6.408;2022-10-16T05:43:52;17.00;91.00
33931;DHT22;20215;53.130;6.408;2022-10-16T05:46:18;17.00;90.90
33931;DHT22;20215;53.130;6.408;2022-10-16T05:48:44;16.90;90.90
33931;DHT22;20215;53.130;6.408;2022-10-16T05:51:11;17.00;90.90
33931;DHT22;20215;53.130;6.408;2022-10-16T05:53:38;16.90;90.90
33931;DHT22;20215;53.130;6.408;2022-10-16T05:56:05;17.00;90.90
33931;DHT22;20215;53.130;6.408;2022-10-16T05:58:33;17.00;90.90
33931;DHT22;20215;53.130;6.408;2022-10-16T06:01:03;16.90;91.00
33931;DHT22;20215;53.130;6.408;2022-10-16T06:03:30;16.90;90.90
33931;DHT22;20215;53.130;6.408;2022-10-16T06:09:17;16.90;90.90
33931;DHT22;20215;53.130;6.408;2022-10-16T06:11:43;16.90;90.90
33931;DHT22;20215;53.130;6.408;2022-10-16T06:14:09;16.90;91.00
33931;DHT22;20215;53.130;6.408;2022-10-16T06:16:35;16.90;91.00
33931;DHT22;20215;53.130;6.408;2022-10-16T06:19:02;16.90;91.00
33931;DHT22;20215;53.130;6.408;2022-10-16T06:21:29;16.90;91.00
33931;DHT22;20215;53.130;6.408;2022-10-16T06:23:57;16.90;91.00
33931;DHT22;20215;53.130;6.408;2022-10-16T06:26:25;16.90;91.00
33931;DHT22;20215;53.130;6.408;2022-10-16T06:28:51;16.90;91.10
33931;DHT22;20215;53.130;6.408;2022-10-16T06:31:17;17.00;91.00
33931;DHT22;20215;53.130;6.408;2022-10-16T06:33:43;17.00;91.00
33931;DHT22;20215;53.130;6.408;2022-10-16T06:36:15;16.90;91.00
33931;DHT22;20215;53.130;6.408;2022-10-16T06:38:41;16.90;91.00
33931;DHT22;20215;53.130;6.408;2022-10-16T06:41:07;16.90;91.00
33931;DHT22;20215;53.130;6.408;2022-10-16T06:43:34;16.90;90.90
33931;DHT22;20215;53.130;6.408;2022-10-16T06:46:04;16.90;91.00
33931;DHT22;20215;53.130;6.408;2022-10-16T06:48:31;17.00;91.00
33931;DHT22;20215;53.130;6.408;2022-10-16T06:51:09;17.00;91.00
33931;DHT22;20215;53.130;6.408;2022-10-16T06:53:37;16.90;91.00
33931;DHT22;20215;53.130;6.408;2022-10-16T06:56:11;17.00;91.20
33931;DHT22;20215;53.130;6.408;2022-10-16T06:58:38;17.00;91.10
33931;DHT22;20215;53.130;6.408;2022-10-16T07:01:04;17.00;91.10
33931;DHT22;20215;53.130;6.408;2022-10-16T07:03:30;17.00;91.10
33931;DHT22;20215;53.130;6.408;2022-10-16T07:05:56;17.00;91.20
33931;DHT22;20215;53.130;6.408;2022-10-16T07:08:22;17.00;91.20
33931;DHT22;20215;53.130;6.408;2022-10-16T07:10:48;17.10;91.10
33931;DHT22;20215;53.130;6.408;2022-10-16T07:13:14;17.00;91.10
33931;DHT22;20215;53.130;6.408;2022-10-16T07:15:40;17.00;91.10
33931;DHT22;20215;53.130;6.408;2022-10-16T07:18:06;17.00;91.10
33931;DHT22;20215;53.130;6.408;2022-10-16T07:20:32;17.00;91.10
33931;DHT22;20215;53.130;6.408;2022-10-16T07:22:58;17.00;91.20
33931;DHT22;20215;53.130;6.408;2022-10-16T07:25:24;17.00;91.10
33931;DHT22;20215;53.130;6.408;2022-10-16T07:27:49;17.00;91.10
33931;DHT22;20215;53.130;6.408;2022-10-16T07:30:15;17.00;91.00
33931;DHT22;20215;53.130;6.408;2022-10-16T07:32:41;17.00;91.00
33931;DHT22;20215;53.130;6.408;2022-10-16T07:35:07;17.00;91.00
33931;DHT22;20215;53.130;6.408;2022-10-16T07:37:32;17.00;91.10
33931;DHT22;20215;53.130;6.408;2022-10-16T07:39:58;17.10;91.10
33931;DHT22;20215;53.130;6.408;2022-10-16T07:42:24;17.00;91.10
33931;DHT22;20215;53.130;6.408;2022-10-16T07:44:49;17.00;91.00
33931;DHT22;20215;53.130;6.408;2022-10-16T07:47:15;17.00;91.00
33931;DHT22;20215;53.130;6.408;2022-10-16T07:49:41;17.00;91.00
33931;DHT22;20215;53.130;6.408;2022-10-16T07:52:07;17.00;91.10
33931;DHT22;20215;53.130;6.408;2022-10-16T07:54:32;17.10;91.10
33931;DHT22;20215;53.130;6.408;2022-10-16T07:56:58;17.10;91.00
33931;DHT22;20215;53.130;6.408;2022-10-16T07:59:24;17.00;91.10
33931;DHT22;20215;53.130;6.408;2022-10-16T08:01:50;17.00;91.10
33931;DHT22;20215;53.130;6.408;2022-10-16T08:04:15;17.10;91.10
33931;DHT22;20215;53.130;6.408;2022-10-16T08:06:41;17.10;91.10
33931;DHT22;20215;53.130;6.408;2022-10-16T08:09:08;17.10;91.20
33931;DHT22;20215;53.130;6.408;2022-10-16T08:11:34;17.10;91.10
33931;DHT22;20215;53.130;6.408;2022-10-16T08:14:00;17.10;91.20
33931;DHT22;20215;53.130;6.408;2022-10-16T08:16:25;17.10;91.10
33931;DHT22;20215;53.130;6.408;2022-10-16T08:18:54;17.10;91.10
33931;DHT22;20215;53.130;6.408;2022-10-16T08:21:21;17.20;91.10
33931;DHT22;20215;53.130;6.408;2022-10-16T08:23:49;17.10;91.00
33931;DHT22;20215;53.130;6.408;2022-10-16T08:26:15;17.10;91.10
33931;DHT22;20215;53.130;6.408;2022-10-16T08:28:40;17.20;91.20
33931;DHT22;20215;53.130;6.408;2022-10-16T08:31:11;17.20;91.20
33931;DHT22;20215;53.130;6.408;2022-10-16T08:33:39;17.20;91.30
33931;DHT22;20215;53.130;6.408;2022-10-16T08:36:06;17.20;91.30
33931;DHT22;20215;53.130;6.408;2022-10-16T08:38:32;17.30;91.40
33931;DHT22;20215;53.130;6.408;2022-10-16T08:41:21;17.30;91.30
33931;DHT22;20215;53.130;6.408;2022-10-16T08:44:15;17.30;91.30
33931;DHT22;20215;53.130;6.408;2022-10-16T08:46:47;17.40;91.30
33931;DHT22;20215;53.130;6.408;2022-10-16T08:49:15;17.40;91.40
33931;DHT22;20215;53.130;6.408;2022-10-16T08:51:42;17.40;91.50
33931;DHT22;20215;53.130;6.408;2022-10-16T08:54:22;17.40;91.40
33931;DHT22;20215;53.130;6.408;2022-10-16T08:56:54;17.40;91.40
33931;DHT22;20215;53.130;6.408;2022-10-16T08:59:21;17.40;91.40
33931;DHT22;20215;53.130;6.408;2022-10-16T09:01:49;17.40;91.40
33931;DHT22;20215;53.130;6.408;2022-10-16T09:04:42;17.50;91.30
33931;DHT22;20215;53.130;6.408;2022-10-16T09:15:32;17.60;91.30
33931;DHT22;20215;53.130;6.408;2022-10-16T09:18:19;17.60;91.30
33931;DHT22;20215;53.130;6.408;2022-10-16T09:23:29;17.70;91.30
33931;DHT22;20215;53.130;6.408;2022-10-16T09:25:58;17.70;91.20
33931;DHT22;20215;53.130;6.408;2022-10-16T09:28:24;17.80;91.20
33931;DHT22;20215;53.130;6.408;2022-10-16T09:30:51;17.80;91.00
33931;DHT22;20215;53.130;6.408;2022-10-16T09:33:19;17.90;91.00
33931;DHT22;20215;53.130;6.408;2022-10-16T09:35:53;17.90;90.90
33931;DHT22;20215;53.130;6.408;2022-10-16T09:38:34;17.90;90.80
33931;DHT22;20215;53.130;6.408;2022-10-16T09:41:17;17.90;90.70
33931;DHT22;20215;53.130;6.408;2022-10-16T09:44:04;17.90;90.80
33931;DHT22;20215;53.130;6.408;2022-10-16T09:46:38;17.90;90.80
33931;DHT22;20215;53.130;6.408;2022-10-16T09:49:22;17.90;90.90
33931;DHT22;20215;53.130;6.408;2022-10-16T09:51:49;18.00;90.90
33931;DHT22;20215;53.130;6.408;2022-10-16T09:54:20;18.00;90.90
33931;DHT22;20215;53.130;6.408;2022-10-16T09:56:46;18.00;90.80
33931;DHT22;20215;53.130;6.408;2022-10-16T09:59:21;18.00;90.70
33931;DHT22;20215;53.130;6.408;2022-10-16T10:01:51;18.10;90.70
33931;DHT22;20215;53.130;6.408;2022-10-16T10:04:18;18.10;90.70
33931;DHT22;20215;53.130;6.408;2022-10-16T10:06:55;18.10;90.60
33931;DHT22;20215;53.130;6.408;2022-10-16T10:09:26;18.10;90.50
33931;DHT22;20215;53.130;6.408;2022-10-16T10:11:57;18.10;90.50
33931;DHT22;20215;53.130;6.408;2022-10-16T10:19:43;18.30;90.60
33931;DHT22;20215;53.130;6.408;2022-10-16T10:22:39;18.40;90.50
33931;DHT22;20215;53.130;6.408;2022-10-16T10:25:14;18.50;90.40
33931;DHT22;20215;53.130;6.408;2022-10-16T10:28:38;18.50;90.40
33931;DHT22;20215;53.130;6.408;2022-10-16T10:31:21;18.60;90.30
33931;DHT22;20215;53.130;6.408;2022-10-16T10:34:03;18.60;90.20
33931;DHT22;20215;53.130;6.408;2022-10-16T10:36:41;18.70;90.30
33931;DHT22;20215;53.130;6.408;2022-10-16T10:39:25;18.70;90.30
33931;DHT22;20215;53.130;6.408;2022-10-16T10:42:25;18.80;90.20
33931;DHT22;20215;53.130;6.408;2022-10-16T10:51:05;19.00;90.00
33931;DHT22;20215;53.130;6.408;2022-10-16T10:53:42;19.10;89.80
33931;DHT22;20215;53.130;6.408;2022-10-16T11:02:00;19.20;89.00
33931;DHT22;20215;53.130;6.408;2022-10-16T11:07:12;19.20;89.00
33931;DHT22;20215;53.130;6.408;2022-10-16T11:09:45;19.20;88.70
33931;DHT22;20215;53.130;6.408;2022-10-16T11:14:46;19.20;88.60
33931;DHT22;20215;53.130;6.408;2022-10-16T11:17:23;19.20;88.70
33931;DHT22;20215;53.130;6.408;2022-10-16T11:19:58;19.20;88.60
33931;DHT22;20215;53.130;6.408;2022-10-16T11:22:38;19.20;88.30
33931;DHT22;20215;53.130;6.408;2022-10-16T11:33:39;19.20;88.20
33931;DHT22;20215;53.130;6.408;2022-10-16T11:41:39;19.10;88.20
33931;DHT22;20215;53.130;6.408;2022-10-16T11:44:34;19.10;88.40
33931;DHT22;20215;53.130;6.408;2022-10-16T11:49:33;19.10;88.70
33931;DHT22;20215;53.130;6.408;2022-10-16T11:52:31;19.10;88.80
33931;DHT22;20215;53.130;6.408;2022-10-16T11:55:05;19.10;88.60
33931;DHT22;20215;53.130;6.408;2022-10-16T11:57:39;19.20;88.70
33931;DHT22;20215;53.130;6.408;2022-10-16T12:00:31;19.20;88.90
33931;DHT22;20215;53.130;6.408;2022-10-16T12:03:11;19.20;88.60
33931;DHT22;20215;53.130;6.408;2022-10-16T12:05:52;19.20;88.50
33931;DHT22;20215;53.130;6.408;2022-10-16T12:08:20;19.20;88.50
33931;DHT22;20215;53.130;6.408;2022-10-16T12:10:47;19.20;88.70
33931;DHT22;20215;53.130;6.408;2022-10-16T12:13:34;19.20;88.90
33931;DHT22;20215;53.130;6.408;2022-10-16T12:18:39;19.30;88.20
33931;DHT22;20215;53.130;6.408;2022-10-16T12:21:05;19.30;88.50
33931;DHT22;20215;53.130;6.408;2022-10-16T12:23:36;19.30;88.40
33931;DHT22;20215;53.130;6.408;2022-10-16T12:26:02;19.30;88.60
33931;DHT22;20215;53.130;6.408;2022-10-16T12:28:30;19.30;88.40
33931;DHT22;20215;53.130;6.408;2022-10-16T12:31:02;19.30;88.30
33931;DHT22;20215;53.130;6.408;2022-10-16T12:33:32;19.30;88.30
33931;DHT22;20215;53.130;6.408;2022-10-16T12:36:00;19.20;88.10
33931;DHT22;20215;53.130;6.408;2022-10-16T12:38:30;19.20;88.50
33931;DHT22;20215;53.130;6.408;2022-10-16T12:41:03;19.20;88.50
33931;DHT22;20215;53.130;6.408;2022-10-16T12:43:41;19.20;88.40
33931;DHT22;20215;53.130;6.408;2022-10-16T12:48:38;19.20;88.50
33931;DHT22;20215;53.130;6.408;2022-10-16T12:51:23;19.20;88.60
33931;DHT22;20215;53.130;6.408;2022-10-16T12:54:17;19.20;88.50
33931;DHT22;20215;53.130;6.408;2022-10-16T12:59:42;19.10;88.60
33931;DHT22;20215;53.130;6.408;2022-10-16T13:07:40;19.10;88.40
33931;DHT22;20215;53.130;6.408;2022-10-16T13:10:41;19.10;88.40
33931;DHT22;20215;53.130;6.408;2022-10-16T13:18:29;19.00;88.20
33931;DHT22;20215;53.130;6.408;2022-10-16T13:21:11;19.00;88.50
33931;DHT22;20215;53.130;6.408;2022-10-16T13:24:36;19.00;88.30
33931;DHT22;20215;53.130;6.408;2022-10-16T13:29:32;19.00;88.60
33931;DHT22;20215;53.130;6.408;2022-10-16T13:32:00;19.00;88.60
33931;DHT22;20215;53.130;6.408;2022-10-16T13:34:26;19.00;88.60
33931;DHT22;20215;53.130;6.408;2022-10-16T13:36:53;19.00;88.60
33931;DHT22;20215;53.130;6.408;2022-10-16T13:39:29;19.00;88.70
33931;DHT22;20215;53.130;6.408;2022-10-16T13:44:24;19.00;88.40
33931;DHT22;20215;53.130;6.408;2022-10-16T13:47:00;19.00;88.60
33931;DHT22;20215;53.130;6.408;2022-10-16T13:49:25;19.10;88.50
33931;DHT22;20215;53.130;6.408;2022-10-16T13:51:58;19.20;88.40
33931;DHT22;20215;53.130;6.408;2022-10-16T13:54:25;19.20;88.30
33931;DHT22;20215;53.130;6.408;2022-10-16T13:56:52;19.30;88.30
33931;DHT22;20215;53.130;6.408;2022-10-16T13:59:27;19.40;88.30
33931;DHT22;20215;53.130;6.408;2022-10-16T14:01:58;19.40;87.90
33931;DHT22;20215;53.130;6.408;2022-10-16T14:04:32;19.50;88.00
33931;DHT22;20215;53.130;6.408;2022-10-16T14:06:58;19.60;87.80
33931;DHT22;20215;53.130;6.408;2022-10-16T14:09:26;19.70;87.80
33931;DHT22;20215;53.130;6.408;2022-10-16T14:12:07;19.70;87.60
33931;DHT22;20215;53.130;6.408;2022-10-16T14:14:54;19.80;87.30
33931;DHT22;20215;53.130;6.408;2022-10-16T14:17:24;19.80;86.90
33931;DHT22;20215;53.130;6.408;2022-10-16T14:19:54;19.90;87.30
33931;DHT22;20215;53.130;6.408;2022-10-16T14:22:35;19.90;86.80
33931;DHT22;20215;53.130;6.408;2022-10-16T14:27:59;20.00;86.30
33931;DHT22;20215;53.130;6.408;2022-10-16T14:30:26;20.00;86.30
33931;DHT22;20215;53.130;6.408;2022-10-16T14:33:00;20.00;86.30
33931;DHT22;20215;53.130;6.408;2022-10-16T14:35:31;20.00;86.30
33931;DHT22;20215;53.130;6.408;2022-10-16T14:37:58;20.00;86.60
33931;DHT22;20215;53.130;6.408;2022-10-16T14:40:33;20.00;86.20
33931;DHT22;20215;53.130;6.408;2022-10-16T14:43:01;19.90;86.10
33931;DHT22;20215;53.130;6.408;2022-10-16T14:45:30;19.90;86.20
33931;DHT22;20215;53.130;6.408;2022-10-16T14:47:59;19.90;86.30
33931;DHT22;20215;53.130;6.408;2022-10-16T14:50:25;19.80;86.40
33931;DHT22;20215;53.130;6.408;2022-10-16T14:52:51;19.80;86.40
33931;DHT22;20215;53.130;6.408;2022-10-16T14:55:17;19.80;86.50
33931;DHT22;20215;53.130;6.408;2022-10-16T14:57:43;19.70;86.50
33931;DHT22;20215;53.130;6.408;2022-10-16T15:00:20;19.70;86.30
33931;DHT22;20215;53.130;6.408;2022-10-16T15:02:47;19.70;86.50
33931;DHT22;20215;53.130;6.408;2022-10-16T15:05:25;19.70;86.70
33931;DHT22;20215;53.130;6.408;2022-10-16T15:07:53;19.70;86.70
33931;DHT22;20215;53.130;6.408;2022-10-16T15:10:20;19.60;86.90
33931;DHT22;20215;53.130;6.408;2022-10-16T15:12:46;19.60;86.90
33931;DHT22;20215;53.130;6.408;2022-10-16T15:15:37;19.60;87.00
33931;DHT22;20215;53.130;6.408;2022-10-16T15:18:03;19.60;87.00
33931;DHT22;20215;53.130;6.408;2022-10-16T15:20:34;19.50;87.10
33931;DHT22;20215;53.130;6.408;2022-10-16T15:23:02;19.50;87.10
33931;DHT22;20215;53.130;6.408;2022-10-16T15:27:59;19.40;87.00
33931;DHT22;20215;53.130;6.408;2022-10-16T15:30:26;19.40;87.00
33931;DHT22;20215;53.130;6.408;2022-10-16T15:32:51;19.40;86.90
33931;DHT22;20215;53.130;6.408;2022-10-16T15:35:17;19.40;86.70
33931;DHT22;20215;53.130;6.408;2022-10-16T15:37:43;19.30;86.60
33931;DHT22;20215;53.130;6.408;2022-10-16T15:40:10;19.30;87.00
33931;DHT22;20215;53.130;6.408;2022-10-16T15:42:35;19.30;85.70
33931;DHT22;20215;53.130;6.408;2022-10-16T15:45:01;19.30;85.70
33931;DHT22;20215;53.130;6.408;2022-10-16T15:47:28;19.30;86.20
33931;DHT22;20215;53.130;6.408;2022-10-16T15:49:54;19.30;85.90
33931;DHT22;20215;53.130;6.408;2022-10-16T15:52:19;19.20;85.50
33931;DHT22;20215;53.130;6.408;2022-10-16T15:54:45;19.20;85.10
33931;DHT22;20215;53.130;6.408;2022-10-16T15:57:10;19.20;85.90
33931;DHT22;20215;53.130;6.408;2022-10-16T15:59:36;19.20;85.90
33931;DHT22;20215;53.130;6.408;2022-10-16T16:02:02;19.10;85.20
33931;DHT22;20215;53.130;6.408;2022-10-16T16:04:29;19.10;85.30
33931;DHT22;20215;53.130;6.408;2022-10-16T16:06:55;19.10;86.30
33931;DHT22;20215;53.130;6.408;2022-10-16T16:09:21;19.10;86.60
33931;DHT22;20215;53.130;6.408;2022-10-16T16:11:46;19.10;87.40
33931;DHT22;20215;53.130;6.408;2022-10-16T16:14:13;19.10;87.80
33931;DHT22;20215;53.130;6.408;2022-10-16T16:16:39;19.00;88.00
33931;DHT22;20215;53.130;6.408;2022-10-16T16:19:05;19.00;88.60
33931;DHT22;20215;53.130;6.408;2022-10-16T16:21:33;19.00;88.50
33931;DHT22;20215;53.130;6.408;2022-10-16T16:23:59;19.00;88.50
33931;DHT22;20215;53.130;6.408;2022-10-16T16:26:27;19.00;89.20
33931;DHT22;20215;53.130;6.408;2022-10-16T16:28:55;18.90;89.10
33931;DHT22;20215;53.130;6.408;2022-10-16T16:31:26;18.90;89.80
33931;DHT22;20215;53.130;6.408;2022-10-16T16:33:52;18.90;89.90
33931;DHT22;20215;53.130;6.408;2022-10-16T16:36:18;18.90;90.00
33931;DHT22;20215;53.130;6.408;2022-10-16T16:38:45;18.90;90.10
33931;DHT22;20215;53.130;6.408;2022-10-16T16:41:14;18.80;87.40
33931;DHT22;20215;53.130;6.408;2022-10-16T16:43:40;18.80;87.90
33931;DHT22;20215;53.130;6.408;2022-10-16T16:46:06;18.80;87.90
33931;DHT22;20215;53.130;6.408;2022-10-16T16:48:32;18.80;87.10
33931;DHT22;20215;53.130;6.408;2022-10-16T16:51:09;18.80;87.00
33931;DHT22;20215;53.130;6.408;2022-10-16T16:53:37;18.70;87.10
33931;DHT22;20215;53.130;6.408;2022-10-16T16:56:06;18.70;87.80
33931;DHT22;20215;53.130;6.408;2022-10-16T16:58:32;18.80;88.50
33931;DHT22;20215;53.130;6.408;2022-10-16T17:00:59;18.70;89.50
33931;DHT22;20215;53.130;6.408;2022-10-16T17:03:29;18.70;89.10
33931;DHT22;20215;53.130;6.408;2022-10-16T17:06:06;18.70;89.50
33931;DHT22;20215;53.130;6.408;2022-10-16T17:08:33;18.70;88.20
33931;DHT22;20215;53.130;6.408;2022-10-16T17:10:59;18.60;89.80
33931;DHT22;20215;53.130;6.408;2022-10-16T17:13:29;18.60;89.00
33931;DHT22;20215;53.130;6.408;2022-10-16T17:15:55;18.60;88.00
33931;DHT22;20215;53.130;6.408;2022-10-16T17:18:22;18.60;87.80
33931;DHT22;20215;53.130;6.408;2022-10-16T17:20:49;18.60;87.30
33931;DHT22;20215;53.130;6.408;2022-10-16T17:23:15;18.60;87.10
33931;DHT22;20215;53.130;6.408;2022-10-16T17:25:42;18.60;87.20
33931;DHT22;20215;53.130;6.408;2022-10-16T17:28:09;18.60;87.00
33931;DHT22;20215;53.130;6.408;2022-10-16T17:30:36;18.60;86.90